Terminal Aerodrome Forecast
Issued by NWS Sterling, VA

Current Version | Previous Version | Text Only | Print | Product List | Glossary Off
Versions: 1 2 3 4 5 6 7 8 9 10 11 12

000
FTUS41 KLWX 191700
TAFMRB
TAF
KMRB 191720Z 1918/2018 31010G18KT P6SM BKN050
     FM192100 31010KT P6SM SCT050
     FM192300 31004KT P6SM SCT200
     FM200900 32003KT P6SM BKN100=

USA.gov is the U.S. government's official web portal to all federal, state and local government web resources and services.